sensor_id;sensor_type;location;lat;lon;timestamp;temperature;humidity
584;HTU21D;27024;54.068;12.116;2023-11-21T00:01:38;5.67;118.99
584;HTU21D;27024;54.068;12.116;2023-11-21T00:04:04;5.69;118.99
584;HTU21D;27024;54.068;12.116;2023-11-21T00:06:34;5.74;118.99
584;HTU21D;27024;54.068;12.116;2023-11-21T00:09:01;5.67;118.99
584;HTU21D;27024;54.068;12.116;2023-11-21T00:11:28;5.66;118.99
584;HTU21D;27024;54.068;12.116;2023-11-21T00:13:55;5.68;118.99
584;HTU21D;27024;54.068;12.116;2023-11-21T00:16:23;5.74;118.99
584;HTU21D;27024;54.068;12.116;2023-11-21T00:18:50;5.70;118.99
584;HTU21D;27024;54.068;12.116;2023-11-21T00:21:17;5.75;118.99
584;HTU21D;27024;54.068;12.116;2023-11-21T00:23:44;5.74;118.99
584;HTU21D;27024;54.068;12.116;2023-11-21T00:26:11;5.71;118.99
584;HTU21D;27024;54.068;12.116;2023-11-21T00:28:38;5.70;118.99
584;HTU21D;27024;54.068;12.116;2023-11-21T00:31:05;5.75;118.99
584;HTU21D;27024;54.068;12.116;2023-11-21T00:33:32;5.77;118.99
584;HTU21D;27024;54.068;12.116;2023-11-21T00:35:59;5.78;118.99
584;HTU21D;27024;54.068;12.116;2023-11-21T00:38:27;5.84;118.99
584;HTU21D;27024;54.068;12.116;2023-11-21T00:40:54;5.74;118.99
584;HTU21D;27024;54.068;12.116;2023-11-21T00:43:23;5.78;118.99
584;HTU21D;27024;54.068;12.116;2023-11-21T00:45:50;5.69;118.99
584;HTU21D;27024;54.068;12.116;2023-11-21T00:48:17;5.70;118.99
584;HTU21D;27024;54.068;12.116;2023-11-21T00:50:44;5.69;118.99
584;HTU21D;27024;54.068;12.116;2023-11-21T00:53:11;5.64;118.99
584;HTU21D;27024;54.068;12.116;2023-11-21T00:55:38;5.68;118.99
584;HTU21D;27024;54.068;12.116;2023-11-21T00:58:08;5.61;118.99
584;HTU21D;27024;54.068;12.116;2023-11-21T01:00:35;5.55;118.99
584;HTU21D;27024;54.068;12.116;2023-11-21T01:03:02;5.52;118.99
584;HTU21D;27024;54.068;12.116;2023-11-21T01:05:29;5.48;118.99
584;HTU21D;27024;54.068;12.116;2023-11-21T01:07:56;5.46;118.99
584;HTU21D;27024;54.068;12.116;2023-11-21T01:10:23;5.41;118.99
584;HTU21D;27024;54.068;12.116;2023-11-21T01:12:50;5.37;118.99
584;HTU21D;27024;54.068;12.116;2023-11-21T01:15:17;5.34;118.99
584;HTU21D;27024;54.068;12.116;2023-11-21T01:17:43;5.33;118.99
584;HTU21D;27024;54.068;12.116;2023-11-21T01:20:11;5.32;118.99
584;HTU21D;27024;54.068;12.116;2023-11-21T01:22:41;5.32;118.99
584;HTU21D;27024;54.068;12.116;2023-11-21T01:25:09;5.28;118.99
584;HTU21D;27024;54.068;12.116;2023-11-21T01:27:37;5.28;118.99
584;HTU21D;27024;54.068;12.116;2023-11-21T01:30:04;5.37;118.99
584;HTU21D;27024;54.068;12.116;2023-11-21T01:32:31;5.30;118.99
584;HTU21D;27024;54.068;12.116;2023-11-21T01:34:59;5.41;118.99
584;HTU21D;27024;54.068;12.116;2023-11-21T01:37:26;5.35;118.99
584;HTU21D;27024;54.068;12.116;2023-11-21T01:39:54;5.38;118.99
584;HTU21D;27024;54.068;12.116;2023-11-21T01:42:22;5.36;118.99
584;HTU21D;27024;54.068;12.116;2023-11-21T01:44:49;5.36;118.99
584;HTU21D;27024;54.068;12.116;2023-11-21T01:47:16;5.37;118.99
584;HTU21D;27024;54.068;12.116;2023-11-21T01:49:45;5.40;118.99
584;HTU21D;27024;54.068;12.116;2023-11-21T01:52:13;5.40;118.99
584;HTU21D;27024;54.068;12.116;2023-11-21T01:54:41;5.42;118.99
584;HTU21D;27024;54.068;12.116;2023-11-21T01:57:09;5.52;118.99
584;HTU21D;27024;54.068;12.116;2023-11-21T01:59:37;5.45;118.99
584;HTU21D;27024;54.068;12.116;2023-11-21T02:02:06;5.45;118.99
584;HTU21D;27024;54.068;12.116;2023-11-21T02:04:33;5.45;118.99
584;HTU21D;27024;54.068;12.116;2023-11-21T02:07:00;5.48;118.99
584;HTU21D;27024;54.068;12.116;2023-11-21T02:09:28;5.47;118.99
584;HTU21D;27024;54.068;12.116;2023-11-21T02:12:04;5.52;118.99
584;HTU21D;27024;54.068;12.116;2023-11-21T02:14:31;5.45;118.99
584;HTU21D;27024;54.068;12.116;2023-11-21T02:16:58;5.42;118.99
584;HTU21D;27024;54.068;12.116;2023-11-21T02:19:25;5.43;118.99
584;HTU21D;27024;54.068;12.116;2023-11-21T02:21:53;5.47;118.99
584;HTU21D;27024;54.068;12.116;2023-11-21T02:24:23;5.52;118.99
584;HTU21D;27024;54.068;12.116;2023-11-21T02:26:51;5.43;118.99
584;HTU21D;27024;54.068;12.116;2023-11-21T02:29:18;5.41;118.99
584;HTU21D;27024;54.068;12.116;2023-11-21T02:31:51;5.39;118.99
584;HTU21D;27024;54.068;12.116;2023-11-21T02:34:18;5.38;118.99
584;HTU21D;27024;54.068;12.116;2023-11-21T02:36:45;5.41;118.99
584;HTU21D;27024;54.068;12.116;2023-11-21T02:39:12;5.42;118.99
584;HTU21D;27024;54.068;12.116;2023-11-21T02:41:40;5.46;118.99
584;HTU21D;27024;54.068;12.116;2023-11-21T02:44:07;5.43;118.99
584;HTU21D;27024;54.068;12.116;2023-11-21T02:46:34;5.49;118.99
584;HTU21D;27024;54.068;12.116;2023-11-21T02:49:05;5.46;118.99
584;HTU21D;27024;54.068;12.116;2023-11-21T02:51:36;5.45;118.99
584;HTU21D;27024;54.068;12.116;2023-11-21T02:54:05;5.49;118.99
584;HTU21D;27024;54.068;12.116;2023-11-21T02:56:33;5.49;118.99
584;HTU21D;27024;54.068;12.116;2023-11-21T02:59:00;5.42;118.99
584;HTU21D;27024;54.068;12.116;2023-11-21T03:01:27;5.49;118.99
584;HTU21D;27024;54.068;12.116;2023-11-21T03:03:55;5.49;118.99
584;HTU21D;27024;54.068;12.116;2023-11-21T03:06:22;5.52;118.99
584;HTU21D;27024;54.068;12.116;2023-11-21T03:08:50;5.48;118.99
584;HTU21D;27024;54.068;12.116;2023-11-21T03:11:17;5.48;118.99
584;HTU21D;27024;54.068;12.116;2023-11-21T03:13:44;5.46;118.99
584;HTU21D;27024;54.068;12.116;2023-11-21T03:16:12;5.50;118.99
584;HTU21D;27024;54.068;12.116;2023-11-21T03:18:39;5.50;118.99
584;HTU21D;27024;54.068;12.116;2023-11-21T03:21:07;5.46;118.99
584;HTU21D;27024;54.068;12.116;2023-11-21T03:23:37;5.47;118.99
584;HTU21D;27024;54.068;12.116;2023-11-21T03:26:04;5.43;118.99
584;HTU21D;27024;54.068;12.116;2023-11-21T03:28:32;5.42;118.99
584;HTU21D;27024;54.068;12.116;2023-11-21T03:30:59;5.47;118.99
584;HTU21D;27024;54.068;12.116;2023-11-21T03:33:26;5.43;118.99
584;HTU21D;27024;54.068;12.116;2023-11-21T03:35:53;5.33;118.99
584;HTU21D;27024;54.068;12.116;2023-11-21T03:38:20;5.37;118.99
584;HTU21D;27024;54.068;12.116;2023-11-21T03:40:47;5.35;118.99
584;HTU21D;27024;54.068;12.116;2023-11-21T03:43:14;5.38;118.99
584;HTU21D;27024;54.068;12.116;2023-11-21T03:45:41;5.39;118.99
584;HTU21D;27024;54.068;12.116;2023-11-21T03:48:08;5.27;118.99
584;HTU21D;27024;54.068;12.116;2023-11-21T03:50:35;5.28;118.99
584;HTU21D;27024;54.068;12.116;2023-11-21T03:53:02;5.27;118.99
584;HTU21D;27024;54.068;12.116;2023-11-21T03:55:30;5.24;118.99
584;HTU21D;27024;54.068;12.116;2023-11-21T03:57:58;5.25;118.99
584;HTU21D;27024;54.068;12.116;2023-11-21T04:00:25;5.23;118.99
584;HTU21D;27024;54.068;12.116;2023-11-21T04:02:55;5.25;118.99
584;HTU21D;27024;54.068;12.116;2023-11-21T04:05:23;5.26;118.99
584;HTU21D;27024;54.068;12.116;2023-11-21T04:07:50;5.27;118.99
584;HTU21D;27024;54.068;12.116;2023-11-21T04:10:18;5.20;118.99
584;HTU21D;27024;54.068;12.116;2023-11-21T04:12:45;5.22;118.99
584;HTU21D;27024;54.068;12.116;2023-11-21T04:15:12;5.23;118.99
584;HTU21D;27024;54.068;12.116;2023-11-21T04:17:41;5.13;118.99
584;HTU21D;27024;54.068;12.116;2023-11-21T04:20:09;5.21;118.99
584;HTU21D;27024;54.068;12.116;2023-11-21T04:22:41;5.16;118.99
584;HTU21D;27024;54.068;12.116;2023-11-21T04:25:09;5.08;118.99
584;HTU21D;27024;54.068;12.116;2023-11-21T04:27:42;5.02;118.99
584;HTU21D;27024;54.068;12.116;2023-11-21T04:30:13;5.05;118.99
584;HTU21D;27024;54.068;12.116;2023-11-21T04:32:40;5.07;118.99
584;HTU21D;27024;54.068;12.116;2023-11-21T04:35:09;5.05;118.99
584;HTU21D;27024;54.068;12.116;2023-11-21T04:37:36;5.05;118.99
584;HTU21D;27024;54.068;12.116;2023-11-21T04:40:03;5.03;118.99
584;HTU21D;27024;54.068;12.116;2023-11-21T04:42:37;5.10;118.99
584;HTU21D;27024;54.068;12.116;2023-11-21T04:45:05;5.07;118.99
584;HTU21D;27024;54.068;12.116;2023-11-21T04:47:36;5.09;118.99
584;HTU21D;27024;54.068;12.116;2023-11-21T04:50:05;5.07;118.99
584;HTU21D;27024;54.068;12.116;2023-11-21T04:52:32;5.06;118.99
584;HTU21D;27024;54.068;12.116;2023-11-21T04:55:00;5.05;118.99
584;HTU21D;27024;54.068;12.116;2023-11-21T04:57:28;5.02;118.99
584;HTU21D;27024;54.068;12.116;2023-11-21T04:59:55;5.06;118.99
584;HTU21D;27024;54.068;12.116;2023-11-21T05:02:22;5.06;118.99
584;HTU21D;27024;54.068;12.116;2023-11-21T05:05:02;5.01;118.99
584;HTU21D;27024;54.068;12.116;2023-11-21T05:07:29;5.00;118.99
584;HTU21D;27024;54.068;12.116;2023-11-21T05:09:58;4.97;118.99
584;HTU21D;27024;54.068;12.116;2023-11-21T05:12:25;4.93;118.99
584;HTU21D;27024;54.068;12.116;2023-11-21T05:14:52;4.90;118.99
584;HTU21D;27024;54.068;12.116;2023-11-21T05:17:19;4.97;118.99
584;HTU21D;27024;54.068;12.116;2023-11-21T05:19:46;4.94;118.99
584;HTU21D;27024;54.068;12.116;2023-11-21T05:22:16;4.92;118.99
584;HTU21D;27024;54.068;12.116;2023-11-21T05:24:43;4.90;118.99
584;HTU21D;27024;54.068;12.116;2023-11-21T05:27:10;4.90;118.99
584;HTU21D;27024;54.068;12.116;2023-11-21T05:29:36;4.82;118.99
584;HTU21D;27024;54.068;12.116;2023-11-21T05:32:04;4.89;118.99
584;HTU21D;27024;54.068;12.116;2023-11-21T05:34:31;4.87;118.99
584;HTU21D;27024;54.068;12.116;2023-11-21T05:36:59;4.93;118.99
584;HTU21D;27024;54.068;12.116;2023-11-21T05:39:26;4.90;118.99
584;HTU21D;27024;54.068;12.116;2023-11-21T05:41:54;4.92;118.99
584;HTU21D;27024;54.068;12.116;2023-11-21T05:44:22;4.86;118.99
584;HTU21D;27024;54.068;12.116;2023-11-21T05:46:50;4.84;118.99
584;HTU21D;27024;54.068;12.116;2023-11-21T05:49:17;4.80;118.99
584;HTU21D;27024;54.068;12.116;2023-11-21T05:51:47;4.88;118.99
584;HTU21D;27024;54.068;12.116;2023-11-21T05:54:13;4.92;118.99
584;HTU21D;27024;54.068;12.116;2023-11-21T05:56:40;4.92;118.99
584;HTU21D;27024;54.068;12.116;2023-11-21T05:59:07;4.88;118.99
584;HTU21D;27024;54.068;12.116;2023-11-21T06:01:34;4.93;118.99
584;HTU21D;27024;54.068;12.116;2023-11-21T06:04:01;4.95;118.99
584;HTU21D;27024;54.068;12.116;2023-11-21T06:06:28;5.04;118.99
584;HTU21D;27024;54.068;12.116;2023-11-21T06:08:55;5.05;118.99
584;HTU21D;27024;54.068;12.116;2023-11-21T06:11:22;4.92;118.99
584;HTU21D;27024;54.068;12.116;2023-11-21T06:13:49;4.86;118.99
584;HTU21D;27024;54.068;12.116;2023-11-21T06:16:16;4.86;118.99
584;HTU21D;27024;54.068;12.116;2023-11-21T06:18:46;4.89;118.99
584;HTU21D;27024;54.068;12.116;2023-11-21T06:21:13;4.87;118.99
584;HTU21D;27024;54.068;12.116;2023-11-21T06:23:40;4.83;118.99
584;HTU21D;27024;54.068;12.116;2023-11-21T06:26:08;4.82;118.99
584;HTU21D;27024;54.068;12.116;2023-11-21T06:28:35;4.79;118.99
584;HTU21D;27024;54.068;12.116;2023-11-21T06:31:03;4.59;118.99
584;HTU21D;27024;54.068;12.116;2023-11-21T06:33:32;4.60;118.99
584;HTU21D;27024;54.068;12.116;2023-11-21T06:35:59;4.57;118.99
584;HTU21D;27024;54.068;12.116;2023-11-21T06:38:26;4.62;118.99
584;HTU21D;27024;54.068;12.116;2023-11-21T06:40:56;4.56;118.99
584;HTU21D;27024;54.068;12.116;2023-11-21T06:43:25;4.52;118.99
584;HTU21D;27024;54.068;12.116;2023-11-21T06:45:52;4.58;118.99
584;HTU21D;27024;54.068;12.116;2023-11-21T06:48:19;4.56;118.99
584;HTU21D;27024;54.068;12.116;2023-11-21T06:50:47;4.57;118.99
584;HTU21D;27024;54.068;12.116;2023-11-21T06:53:14;4.59;118.99
584;HTU21D;27024;54.068;12.116;2023-11-21T06:55:41;4.54;118.99
584;HTU21D;27024;54.068;12.116;2023-11-21T06:58:08;4.49;118.99
584;HTU21D;27024;54.068;12.116;2023-11-21T07:00:35;4.54;118.99
584;HTU21D;27024;54.068;12.116;2023-11-21T07:03:02;4.51;118.99
584;HTU21D;27024;54.068;12.116;2023-11-21T07:05:30;4.51;118.99
584;HTU21D;27024;54.068;12.116;2023-11-21T07:07:57;4.53;118.99
584;HTU21D;27024;54.068;12.116;2023-11-21T07:10:27;4.50;118.99
584;HTU21D;27024;54.068;12.116;2023-11-21T07:12:54;4.48;118.99
584;HTU21D;27024;54.068;12.116;2023-11-21T07:15:21;4.51;118.99
584;HTU21D;27024;54.068;12.116;2023-11-21T07:17:49;4.48;118.99
584;HTU21D;27024;54.068;12.116;2023-11-21T07:20:16;4.50;118.99
584;HTU21D;27024;54.068;12.116;2023-11-21T07:22:44;4.50;118.99
584;HTU21D;27024;54.068;12.116;2023-11-21T07:25:11;4.60;118.99
584;HTU21D;27024;54.068;12.116;2023-11-21T07:27:39;4.64;118.99
584;HTU21D;27024;54.068;12.116;2023-11-21T07:30:07;4.69;118.99
584;HTU21D;27024;54.068;12.116;2023-11-21T07:32:36;4.73;118.99
584;HTU21D;27024;54.068;12.116;2023-11-21T07:35:08;4.73;118.99
584;HTU21D;27024;54.068;12.116;2023-11-21T07:37:35;5.25;118.99
584;HTU21D;27024;54.068;12.116;2023-11-21T07:40:02;5.20;118.99
584;HTU21D;27024;54.068;12.116;2023-11-21T07:42:30;4.88;118.99
584;HTU21D;27024;54.068;12.116;2023-11-21T07:44:57;4.91;118.99
584;HTU21D;27024;54.068;12.116;2023-11-21T07:47:24;4.88;118.99
584;HTU21D;27024;54.068;12.116;2023-11-21T07:49:54;4.91;118.99
584;HTU21D;27024;54.068;12.116;2023-11-21T07:52:23;4.73;118.99
584;HTU21D;27024;54.068;12.116;2023-11-21T07:54:54;4.98;118.99
584;HTU21D;27024;54.068;12.116;2023-11-21T07:57:21;5.00;118.99
584;HTU21D;27024;54.068;12.116;2023-11-21T07:59:48;5.54;118.99
584;HTU21D;27024;54.068;12.116;2023-11-21T08:02:15;5.23;118.99
584;HTU21D;27024;54.068;12.116;2023-11-21T08:04:44;5.32;118.99
584;HTU21D;27024;54.068;12.116;2023-11-21T08:07:11;5.30;118.99
584;HTU21D;27024;54.068;12.116;2023-11-21T08:09:38;5.55;118.99
584;HTU21D;27024;54.068;12.116;2023-11-21T08:12:05;5.43;118.99
584;HTU21D;27024;54.068;12.116;2023-11-21T08:14:32;5.48;118.99
584;HTU21D;27024;54.068;12.116;2023-11-21T08:16:59;5.59;118.99
584;HTU21D;27024;54.068;12.116;2023-11-21T08:19:26;5.48;118.99
584;HTU21D;27024;54.068;12.116;2023-11-21T08:21:53;5.47;118.99
584;HTU21D;27024;54.068;12.116;2023-11-21T08:24:21;5.50;118.99
584;HTU21D;27024;54.068;12.116;2023-11-21T08:26:48;5.50;118.99
584;HTU21D;27024;54.068;12.116;2023-11-21T08:29:16;5.46;118.99
584;HTU21D;27024;54.068;12.116;2023-11-21T08:31:43;5.50;118.99
584;HTU21D;27024;54.068;12.116;2023-11-21T08:34:13;5.26;118.99
584;HTU21D;27024;54.068;12.116;2023-11-21T08:36:42;5.48;118.99
584;HTU21D;27024;54.068;12.116;2023-11-21T08:39:09;5.52;118.99
584;HTU21D;27024;54.068;12.116;2023-11-21T08:41:36;5.62;118.99
584;HTU21D;27024;54.068;12.116;2023-11-21T08:44:04;5.68;118.99
584;HTU21D;27024;54.068;12.116;2023-11-21T08:46:34;5.62;118.99
584;HTU21D;27024;54.068;12.116;2023-11-21T08:49:04;5.59;118.99
584;HTU21D;27024;54.068;12.116;2023-11-21T08:51:33;5.63;118.99
584;HTU21D;27024;54.068;12.116;2023-11-21T08:54:00;5.37;118.99
584;HTU21D;27024;54.068;12.116;2023-11-21T08:56:31;5.51;118.99
584;HTU21D;27024;54.068;12.116;2023-11-21T08:58:58;5.47;118.99
584;HTU21D;27024;54.068;12.116;2023-11-21T09:01:24;5.72;118.99
584;HTU21D;27024;54.068;12.116;2023-11-21T09:03:52;5.76;118.99
584;HTU21D;27024;54.068;12.116;2023-11-21T09:06:19;5.65;118.99
584;HTU21D;27024;54.068;12.116;2023-11-21T09:08:46;5.71;118.99
584;HTU21D;27024;54.068;12.116;2023-11-21T09:11:12;5.65;118.99
584;HTU21D;27024;54.068;12.116;2023-11-21T09:13:40;5.75;118.99
584;HTU21D;27024;54.068;12.116;2023-11-21T09:16:07;5.72;118.99
584;HTU21D;27024;54.068;12.116;2023-11-21T09:18:34;5.70;118.99
584;HTU21D;27024;54.068;12.116;2023-11-21T09:21:01;5.71;118.99
584;HTU21D;27024;54.068;12.116;2023-11-21T09:23:28;5.84;118.99
584;HTU21D;27024;54.068;12.116;2023-11-21T09:25:55;5.95;118.99
584;HTU21D;27024;54.068;12.116;2023-11-21T09:28:24;6.12;118.99
584;HTU21D;27024;54.068;12.116;2023-11-21T09:30:51;6.12;118.99
584;HTU21D;27024;54.068;12.116;2023-11-21T09:33:18;6.22;118.99
584;HTU21D;27024;54.068;12.116;2023-11-21T09:35:44;6.10;118.99
584;HTU21D;27024;54.068;12.116;2023-11-21T09:38:12;6.14;118.99
584;HTU21D;27024;54.068;12.116;2023-11-21T09:40:39;6.15;118.99
584;HTU21D;27024;54.068;12.116;2023-11-21T09:43:24;6.19;118.99
584;HTU21D;27024;54.068;12.116;2023-11-21T09:45:57;6.23;118.99
584;HTU21D;27024;54.068;12.116;2023-11-21T09:48:26;6.07;118.99
584;HTU21D;27024;54.068;12.116;2023-11-21T09:50:53;6.12;118.99
584;HTU21D;27024;54.068;12.116;2023-11-21T09:53:21;6.29;118.99
584;HTU21D;27024;54.068;12.116;2023-11-21T09:55:52;6.38;118.99
584;HTU21D;27024;54.068;12.116;2023-11-21T09:58:20;6.39;118.99
584;HTU21D;27024;54.068;12.116;2023-11-21T10:00:53;6.36;118.99
584;HTU21D;27024;54.068;12.116;2023-11-21T10:03:20;6.39;118.99
584;HTU21D;27024;54.068;12.116;2023-11-21T10:05:50;6.37;118.99
584;HTU21D;27024;54.068;12.116;2023-11-21T10:08:17;6.27;118.99
584;HTU21D;27024;54.068;12.116;2023-11-21T10:10:46;6.22;118.99
584;HTU21D;27024;54.068;12.116;2023-11-21T10:13:17;6.35;118.99
584;HTU21D;27024;54.068;12.116;2023-11-21T10:15:50;6.24;118.99
584;HTU21D;27024;54.068;12.116;2023-11-21T10:18:18;6.24;118.99
584;HTU21D;27024;54.068;12.116;2023-11-21T10:20:45;6.11;118.99
584;HTU21D;27024;54.068;12.116;2023-11-21T10:23:23;6.12;118.99
584;HTU21D;27024;54.068;12.116;2023-11-21T10:25:52;6.08;118.99
584;HTU21D;27024;54.068;12.116;2023-11-21T10:28:21;6.14;118.99
584;HTU21D;27024;54.068;12.116;2023-11-21T10:30:48;6.16;118.99
584;HTU21D;27024;54.068;12.116;2023-11-21T10:33:15;6.20;118.99
584;HTU21D;27024;54.068;12.116;2023-11-21T10:35:47;6.13;118.99
584;HTU21D;27024;54.068;12.116;2023-11-21T10:38:18;6.16;118.99
584;HTU21D;27024;54.068;12.116;2023-11-21T10:40:48;6.24;118.99
584;HTU21D;27024;54.068;12.116;2023-11-21T10:43:17;6.30;118.99
584;HTU21D;27024;54.068;12.116;2023-11-21T10:45:44;6.52;118.99
584;HTU21D;27024;54.068;12.116;2023-11-21T10:48:15;6.90;118.99
584;HTU21D;27024;54.068;12.116;2023-11-21T10:50:44;7.53;118.99
584;HTU21D;27024;54.068;12.116;2023-11-21T10:53:11;7.62;118.99
584;HTU21D;27024;54.068;12.116;2023-11-21T10:55:40;7.37;118.99
584;HTU21D;27024;54.068;12.116;2023-11-21T10:58:07;7.83;118.99
584;HTU21D;27024;54.068;12.116;2023-11-21T11:00:37;7.64;118.99
584;HTU21D;27024;54.068;12.116;2023-11-21T11:03:07;7.20;118.99
584;HTU21D;27024;54.068;12.116;2023-11-21T11:05:43;7.57;118.99
584;HTU21D;27024;54.068;12.116;2023-11-21T11:08:21;7.99;118.99
584;HTU21D;27024;54.068;12.116;2023-11-21T11:10:54;7.99;118.99
584;HTU21D;27024;54.068;12.116;2023-11-21T11:13:22;7.82;118.99
584;HTU21D;27024;54.068;12.116;2023-11-21T11:15:50;7.76;118.99
584;HTU21D;27024;54.068;12.116;2023-11-21T11:18:18;7.54;118.99
584;HTU21D;27024;54.068;12.116;2023-11-21T11:20:49;7.49;118.99
584;HTU21D;27024;54.068;12.116;2023-11-21T11:26:20;7.02;118.99
584;HTU21D;27024;54.068;12.116;2023-11-21T11:31:55;7.05;118.99
584;HTU21D;27024;54.068;12.116;2023-11-21T11:34:35;6.97;118.99
584;HTU21D;27024;54.068;12.116;2023-11-21T11:37:07;6.89;118.99
584;HTU21D;27024;54.068;12.116;2023-11-21T11:42:07;6.87;118.99
584;HTU21D;27024;54.068;12.116;2023-11-21T11:50:03;6.79;118.99
584;HTU21D;27024;54.068;12.116;2023-11-21T11:52:41;6.79;118.99
584;HTU21D;27024;54.068;12.116;2023-11-21T11:55:11;6.89;118.99
584;HTU21D;27024;54.068;12.116;2023-11-21T11:57:42;6.89;118.99
584;HTU21D;27024;54.068;12.116;2023-11-21T12:00:16;7.03;118.99
584;HTU21D;27024;54.068;12.116;2023-11-21T12:02:51;6.84;118.99
584;HTU21D;27024;54.068;12.116;2023-11-21T12:05:21;6.98;118.99
584;HTU21D;27024;54.068;12.116;2023-11-21T12:07:53;6.97;118.99
584;HTU21D;27024;54.068;12.116;2023-11-21T12:10:22;6.99;118.99
584;HTU21D;27024;54.068;12.116;2023-11-21T12:12:56;6.95;118.99
584;HTU21D;27024;54.068;12.116;2023-11-21T12:15:23;6.79;118.99
584;HTU21D;27024;54.068;12.116;2023-11-21T12:17:52;6.78;118.99
584;HTU21D;27024;54.068;12.116;2023-11-21T12:20:21;6.67;118.99
584;HTU21D;27024;54.068;12.116;2023-11-21T12:22:49;6.37;118.99
584;HTU21D;27024;54.068;12.116;2023-11-21T12:25:22;6.41;118.99
584;HTU21D;27024;54.068;12.116;2023-11-21T12:27:53;6.42;118.99
584;HTU21D;27024;54.068;12.116;2023-11-21T12:30:25;6.36;118.99
584;HTU21D;27024;54.068;12.116;2023-11-21T12:32:55;6.33;118.99
584;HTU21D;27024;54.068;12.116;2023-11-21T12:35:24;6.49;118.99
584;HTU21D;27024;54.068;12.116;2023-11-21T12:37:52;6.51;118.99
584;HTU21D;27024;54.068;12.116;2023-11-21T12:40:19;6.48;118.99
584;HTU21D;27024;54.068;12.116;2023-11-21T12:42:48;6.45;118.99
584;HTU21D;27024;54.068;12.116;2023-11-21T12:47:44;6.48;118.99
584;HTU21D;27024;54.068;12.116;2023-11-21T12:50:12;6.49;118.99
584;HTU21D;27024;54.068;12.116;2023-11-21T12:52:45;6.43;118.99
584;HTU21D;27024;54.068;12.116;2023-11-21T12:55:16;6.50;118.99
584;HTU21D;27024;54.068;12.116;2023-11-21T12:57:44;6.51;118.99
584;HTU21D;27024;54.068;12.116;2023-11-21T13:00:12;6.52;118.99
584;HTU21D;27024;54.068;12.116;2023-11-21T13:02:51;6.45;118.99
584;HTU21D;27024;54.068;12.116;2023-11-21T13:05:27;6.22;118.99
584;HTU21D;27024;54.068;12.116;2023-11-21T13:08:00;6.25;118.99
584;HTU21D;27024;54.068;12.116;2023-11-21T13:10:31;6.02;118.99
584;HTU21D;27024;54.068;12.116;2023-11-21T13:12:59;5.99;118.99
584;HTU21D;27024;54.068;12.116;2023-11-21T13:15:27;5.90;118.99
584;HTU21D;27024;54.068;12.116;2023-11-21T13:17:54;5.80;118.99
584;HTU21D;27024;54.068;12.116;2023-11-21T13:20:25;5.89;118.99
584;HTU21D;27024;54.068;12.116;2023-11-21T13:22:54;5.93;118.99
584;HTU21D;27024;54.068;12.116;2023-11-21T13:25:24;5.94;118.99
584;HTU21D;27024;54.068;12.116;2023-11-21T13:27:54;5.87;118.99
584;HTU21D;27024;54.068;12.116;2023-11-21T13:30:22;5.87;118.99
584;HTU21D;27024;54.068;12.116;2023-11-21T13:32:54;5.80;118.99
584;HTU21D;27024;54.068;12.116;2023-11-21T13:35:24;5.77;118.99
584;HTU21D;27024;54.068;12.116;2023-11-21T13:38:09;5.76;118.99
584;HTU21D;27024;54.068;12.116;2023-11-21T13:40:37;5.66;118.99
584;HTU21D;27024;54.068;12.116;2023-11-21T13:43:13;5.68;118.99
584;HTU21D;27024;54.068;12.116;2023-11-21T13:45:44;5.69;118.99
584;HTU21D;27024;54.068;12.116;2023-11-21T13:48:12;5.60;118.99
584;HTU21D;27024;54.068;12.116;2023-11-21T13:50:46;5.41;118.99
584;HTU21D;27024;54.068;12.116;2023-11-21T13:53:22;5.51;118.99
584;HTU21D;27024;54.068;12.116;2023-11-21T13:55:50;5.42;118.99
584;HTU21D;27024;54.068;12.116;2023-11-21T13:58:18;5.30;118.99
584;HTU21D;27024;54.068;12.116;2023-11-21T14:00:46;5.39;118.99
584;HTU21D;27024;54.068;12.116;2023-11-21T14:03:13;5.32;118.99
584;HTU21D;27024;54.068;12.116;2023-11-21T14:05:49;5.23;118.99
584;HTU21D;27024;54.068;12.116;2023-11-21T14:08:19;5.19;118.99
584;HTU21D;27024;54.068;12.116;2023-11-21T14:10:48;5.22;118.99
584;HTU21D;27024;54.068;12.116;2023-11-21T14:13:22;5.12;118.99
584;HTU21D;27024;54.068;12.116;2023-11-21T14:15:50;5.19;118.99
584;HTU21D;27024;54.068;12.116;2023-11-21T14:18:19;4.97;118.99
584;HTU21D;27024;54.068;12.116;2023-11-21T14:20:54;4.91;118.99
584;HTU21D;27024;54.068;12.116;2023-11-21T14:23:21;4.86;118.99
584;HTU21D;27024;54.068;12.116;2023-11-21T14:25:49;4.72;118.99
584;HTU21D;27024;54.068;12.116;2023-11-21T14:28:18;4.82;118.99
584;HTU21D;27024;54.068;12.116;2023-11-21T14:30:46;4.86;118.99
584;HTU21D;27024;54.068;12.116;2023-11-21T14:33:13;4.78;118.99
584;HTU21D;27024;54.068;12.116;2023-11-21T14:35:40;4.73;118.99
584;HTU21D;27024;54.068;12.116;2023-11-21T14:38:08;4.68;118.99
584;HTU21D;27024;54.068;12.116;2023-11-21T14:40:36;4.63;118.99
584;HTU21D;27024;54.068;12.116;2023-11-21T14:43:03;4.72;118.99
584;HTU21D;27024;54.068;12.116;2023-11-21T14:45:33;4.66;118.99
584;HTU21D;27024;54.068;12.116;2023-11-21T14:48:01;4.73;118.99
584;HTU21D;27024;54.068;12.116;2023-11-21T14:50:35;4.74;118.99
584;HTU21D;27024;54.068;12.116;2023-11-21T14:53:12;4.72;118.99
584;HTU21D;27024;54.068;12.116;2023-11-21T14:55:41;4.60;118.99
584;HTU21D;27024;54.068;12.116;2023-11-21T14:58:08;4.54;118.99
584;HTU21D;27024;54.068;12.116;2023-11-21T15:00:39;4.43;118.99
584;HTU21D;27024;54.068;12.116;2023-11-21T15:03:12;4.45;118.99
584;HTU21D;27024;54.068;12.116;2023-11-21T15:06:02;4.36;118.99
584;HTU21D;27024;54.068;12.116;2023-11-21T15:08:55;4.52;118.99
584;HTU21D;27024;54.068;12.116;2023-11-21T15:11:31;4.35;118.99
584;HTU21D;27024;54.068;12.116;2023-11-21T15:13:58;4.28;118.99
584;HTU21D;27024;54.068;12.116;2023-11-21T15:16:26;4.37;118.99
584;HTU21D;27024;54.068;12.116;2023-11-21T15:18:54;4.28;118.99
584;HTU21D;27024;54.068;12.116;2023-11-21T15:21:21;4.23;118.99
584;HTU21D;27024;54.068;12.116;2023-11-21T15:23:49;4.23;118.99
584;HTU21D;27024;54.068;12.116;2023-11-21T15:26:16;4.21;118.99
584;HTU21D;27024;54.068;12.116;2023-11-21T15:28:43;4.21;118.99
584;HTU21D;27024;54.068;12.116;2023-11-21T15:31:11;4.20;118.99
584;HTU21D;27024;54.068;12.116;2023-11-21T15:33:38;4.33;118.99
584;HTU21D;27024;54.068;12.116;2023-11-21T15:36:05;4.34;118.99
584;HTU21D;27024;54.068;12.116;2023-11-21T15:38:36;4.33;118.99
584;HTU21D;27024;54.068;12.116;2023-11-21T15:41:04;4.32;118.99
584;HTU21D;27024;54.068;12.116;2023-11-21T15:43:34;4.20;118.99
584;HTU21D;27024;54.068;12.116;2023-11-21T15:46:01;4.23;118.99
584;HTU21D;27024;54.068;12.116;2023-11-21T15:48:34;4.45;118.99
584;HTU21D;27024;54.068;12.116;2023-11-21T15:51:01;4.35;118.99
584;HTU21D;27024;54.068;12.116;2023-11-21T15:53:29;4.38;118.99
584;HTU21D;27024;54.068;12.116;2023-11-21T15:55:56;4.32;118.99